createdAt,value
2023-04-21T00:03:10.851Z,100
2023-04-21T00:08:10.678Z,100
2023-04-21T00:14:00.393Z,100
2023-04-21T00:19:00.463Z,100
2023-04-21T00:24:00.609Z,100
2023-04-21T00:29:10.668Z,100
2023-04-21T00:35:00.425Z,100
2023-04-21T00:40:00.414Z,100
2023-04-21T00:45:10.686Z,100
2023-04-21T00:51:00.386Z,100
2023-04-21T00:56:00.421Z,100
2023-04-21T01:01:10.752Z,100
2023-04-21T01:06:10.711Z,100
2023-04-21T01:12:00.412Z,100
2023-04-21T01:17:10.751Z,100
2023-04-21T01:23:00.401Z,100
2023-04-21T01:28:10.694Z,100
2023-04-21T01:33:10.748Z,100
2023-04-21T01:38:11.087Z,100
2023-04-21T01:44:00.397Z,100
2023-04-21T01:49:00.420Z,100
2023-04-21T01:54:10.746Z,100
2023-04-21T02:00:00.419Z,100
2023-04-21T02:05:00.423Z,100
2023-04-21T02:10:00.424Z,100
2023-04-21T02:15:10.739Z,100
2023-04-21T02:21:00.389Z,100
2023-04-21T02:26:00.410Z,100
2023-04-21T02:31:10.791Z,100
2023-04-21T02:37:00.410Z,100
2023-04-21T02:42:10.753Z,100
2023-04-21T02:48:00.535Z,100
2023-04-21T02:53:10.729Z,100
2023-04-21T02:59:00.387Z,100
2023-04-21T03:04:00.515Z,100
2023-04-21T03:09:10.723Z,100
2023-04-21T03:15:00.422Z,100
2023-04-21T03:20:10.742Z,100
2023-04-21T03:26:00.397Z,100
2023-04-21T03:31:00.544Z,100
2023-04-21T03:36:10.740Z,100
2023-04-21T03:41:10.748Z,100
2023-04-21T03:47:00.402Z,100
2023-04-21T03:52:00.416Z,100
2023-04-21T03:57:00.412Z,100
2023-04-21T04:02:00.482Z,100
2023-04-21T04:07:00.449Z,100
2023-04-21T04:12:11.803Z,100
2023-04-21T04:18:00.448Z,100
2023-04-21T04:23:00.417Z,100
2023-04-21T04:28:10.688Z,100
2023-04-21T04:33:10.780Z,100
2023-04-21T04:39:00.403Z,100
2023-04-21T04:44:01.011Z,100
2023-04-21T04:49:10.676Z,100
2023-04-21T04:54:10.685Z,100
2023-04-21T04:59:10.692Z,100
2023-04-21T05:05:00.416Z,100
2023-04-21T05:10:10.680Z,100
2023-04-21T05:15:10.676Z,100
2023-04-21T05:20:10.716Z,100
2023-04-21T05:26:03.868Z,100
2023-04-21T05:31:00.447Z,100
2023-04-21T05:36:10.681Z,100
2023-04-21T05:41:10.682Z,100
2023-04-21T05:47:00.405Z,100
2023-04-21T05:52:00.406Z,100
2023-04-21T05:57:10.684Z,100
2023-04-21T06:03:00.545Z,100
2023-04-21T06:08:10.685Z,100
2023-04-21T06:14:00.386Z,100
2023-04-21T06:19:00.407Z,100
2023-04-21T06:24:00.391Z,100
2023-04-21T06:29:00.422Z,100
2023-04-21T06:34:00.429Z,100
2023-04-21T06:39:10.684Z,100
2023-04-21T06:45:00.419Z,100
2023-04-21T06:50:10.699Z,100
2023-04-21T06:55:10.688Z,100
2023-04-21T07:00:10.689Z,100
2023-04-21T07:06:00.452Z,100
2023-04-21T07:11:10.679Z,100
2023-04-21T07:16:10.952Z,100
2023-04-21T07:21:10.699Z,100
2023-04-21T07:26:10.700Z,100
2023-04-21T07:32:00.430Z,100
2023-04-21T07:37:10.698Z,100
2023-04-21T07:42:10.709Z,100
2023-04-21T07:48:00.449Z,100
2023-04-21T07:53:10.731Z,100
2023-04-21T07:59:00.397Z,100
2023-04-21T08:04:00.638Z,100
2023-04-21T08:09:10.733Z,100
2023-04-21T08:15:00.455Z,100
2023-04-21T08:20:00.426Z,100
2023-04-21T08:25:00.436Z,100
2023-04-21T08:30:10.686Z,100
2023-04-21T08:35:10.699Z,100
2023-04-21T08:40:10.684Z,100
2023-04-21T08:45:10.696Z,100
2023-04-21T08:51:00.402Z,95.8
2023-04-21T08:56:11.881Z,93
2023-04-21T09:02:00.546Z,94.5
2023-04-21T09:07:10.702Z,88.4
2023-04-21T09:12:10.701Z,86.6
2023-04-21T09:17:10.788Z,92.2
2023-04-21T09:22:10.726Z,87.9
2023-04-21T09:28:00.441Z,91
2023-04-21T09:33:00.572Z,85.3
2023-04-21T09:38:10.723Z,80
2023-04-21T09:44:00.584Z,85.5
2023-04-21T09:49:10.715Z,81
2023-04-21T09:54:22.014Z,75.5
2023-04-21T10:00:00.446Z,71
2023-04-21T10:05:10.884Z,68.5
2023-04-21T10:21:10.728Z,59.3
2023-04-21T10:27:00.450Z,53.2
2023-04-21T10:32:00.508Z,57.7
2023-04-21T10:37:10.714Z,65.2
2023-04-21T10:42:10.727Z,67.3
2023-04-21T10:48:00.478Z,68.6
2023-04-21T10:53:10.723Z,66.1
2023-04-21T10:58:10.733Z,62.8
2023-04-21T11:03:10.881Z,57.9
2023-04-21T11:09:00.432Z,65
2023-04-21T11:14:00.499Z,65.2
2023-04-21T11:19:00.463Z,63.9
2023-04-21T11:24:10.710Z,64.3
2023-04-21T11:29:10.756Z,72.7
2023-04-21T11:35:00.441Z,63.7
2023-04-21T11:40:10.714Z,64.9
2023-04-21T11:45:10.728Z,59.1
2023-04-21T11:51:00.442Z,59.5
2023-04-21T12:01:00.489Z,63
2023-04-21T12:06:10.816Z,63.4
2023-04-21T12:11:10.726Z,64.3
2023-04-21T12:17:00.464Z,63.6
2023-04-21T12:27:07.121Z,70.8
2023-04-21T12:32:10.882Z,71.6
2023-04-21T12:38:00.469Z,66.9
2023-04-21T12:43:10.791Z,69.7
2023-04-21T12:49:00.465Z,66.2
2023-04-21T12:54:00.464Z,66.8
2023-04-21T13:03:00.659Z,68.5
2023-04-21T13:08:10.756Z,68.8
2023-04-21T13:14:00.474Z,71.7
2023-04-21T13:19:10.762Z,68.5
2023-04-21T13:25:00.475Z,72
2023-04-21T13:30:10.762Z,68.4
2023-04-21T13:36:00.498Z,71
2023-04-21T13:41:00.492Z,64.5
2023-04-21T13:46:10.837Z,65.5
2023-04-21T13:52:00.472Z,63.3
2023-04-21T13:57:00.477Z,61.9
2023-04-21T14:02:10.887Z,64.9
2023-04-21T14:07:10.756Z,67.2
2023-04-21T14:13:00.528Z,66.5
2023-04-21T14:18:10.787Z,64.6
2023-04-21T14:23:10.758Z,62
2023-04-21T14:28:10.808Z,61.9
2023-04-21T14:33:10.880Z,61.6
2023-04-21T14:39:00.492Z,60.7
2023-04-21T14:44:00.484Z,64.2
2023-04-21T14:49:00.626Z,59.6
2023-04-21T14:54:10.778Z,59.5
2023-04-21T14:59:10.805Z,60.4
2023-04-21T15:05:00.545Z,62.8
2023-04-21T15:10:10.815Z,58.5
2023-04-21T15:21:10.781Z,58.7
2023-04-21T15:27:00.519Z,61.1
2023-04-21T15:32:10.788Z,62.5
2023-04-21T15:38:00.595Z,60.3
2023-04-21T15:43:10.808Z,60.1
2023-04-21T15:48:10.810Z,62.7
2023-04-21T15:54:00.516Z,62.4
2023-04-21T15:59:00.498Z,61.8
2023-04-21T16:04:00.682Z,63.3
2023-04-21T16:09:10.807Z,61.9
2023-04-21T16:14:10.794Z,61.6
2023-04-21T16:20:00.590Z,60.6
2023-04-21T16:25:10.825Z,59
2023-04-21T16:30:10.786Z,55.1
2023-04-21T16:35:10.845Z,57.8
2023-04-21T16:41:00.517Z,60.4
2023-04-21T16:46:00.525Z,57.3
2023-04-21T16:51:10.798Z,59
2023-04-21T16:57:00.501Z,59.1
2023-04-21T17:02:00.540Z,59.9
2023-04-21T17:07:10.781Z,60.2
2023-04-21T17:12:10.795Z,61.5
2023-04-21T17:17:10.783Z,61.5
2023-04-21T17:23:00.514Z,62
2023-04-21T17:28:10.791Z,62.6
2023-04-21T17:38:10.790Z,63.8
2023-04-21T17:43:10.801Z,64.1
2023-04-21T17:48:10.834Z,64.8
2023-04-21T17:53:10.810Z,64.5
2023-04-21T17:59:00.521Z,65
2023-04-21T18:04:01.572Z,65.4
2023-04-21T18:09:00.531Z,66.4
2023-04-21T18:14:00.561Z,66.5
2023-04-21T18:19:10.833Z,66.7
2023-04-21T18:25:00.592Z,67
2023-04-21T18:30:10.803Z,66.7
2023-04-21T18:35:10.803Z,67.7
2023-04-21T18:41:00.524Z,67.8
2023-04-21T18:46:00.557Z,68.9
2023-04-21T18:51:10.812Z,73.1
2023-04-21T18:57:00.533Z,93.5
2023-04-21T19:02:00.635Z,100
2023-04-21T19:07:10.820Z,100
2023-04-21T19:13:00.538Z,100
2023-04-21T19:18:00.605Z,100
2023-04-21T19:23:10.821Z,100
2023-04-21T19:28:10.811Z,100
2023-04-21T19:33:10.880Z,100
2023-04-21T19:39:00.600Z,100
2023-04-21T19:44:10.835Z,100
2023-04-21T19:49:10.909Z,100
2023-04-21T19:55:00.575Z,100
2023-04-21T20:00:10.830Z,100
2023-04-21T20:06:00.558Z,100
2023-04-21T20:11:10.847Z,100
2023-04-21T20:16:10.833Z,100
2023-04-21T20:21:10.912Z,100
2023-04-21T20:27:00.569Z,100
2023-04-21T20:32:00.644Z,100
2023-04-21T20:37:10.831Z,100
2023-04-21T20:42:13.621Z,100
2023-04-21T20:48:00.563Z,100
2023-04-21T20:53:00.575Z,100
2023-04-21T20:58:10.837Z,100
2023-04-21T21:09:10.845Z,100
2023-04-21T21:15:00.543Z,100
2023-04-21T21:20:00.572Z,100
2023-04-21T21:25:10.825Z,100
2023-04-21T21:30:11.190Z,100
2023-04-21T21:35:11.274Z,100
2023-04-21T21:41:00.571Z,100
2023-04-21T21:51:10.847Z,100
2023-04-21T21:56:10.902Z,100
2023-04-21T22:02:00.716Z,100
2023-04-21T22:07:00.576Z,100
2023-04-21T22:12:10.836Z,100
2023-04-21T22:17:10.868Z,100
2023-04-21T22:22:10.856Z,100
2023-04-21T22:27:10.874Z,100
2023-04-21T22:33:00.563Z,100
2023-04-21T22:38:00.565Z,100
2023-04-21T22:43:00.570Z,100
2023-04-21T22:48:10.913Z,100
2023-04-21T22:53:10.856Z,100
2023-04-21T22:59:00.583Z,100
2023-04-21T23:04:11.127Z,100
2023-04-21T23:15:00.565Z,100
2023-04-21T23:20:00.601Z,100
2023-04-21T23:25:00.641Z,100
2023-04-21T23:30:10.847Z,100
2023-04-21T23:35:10.862Z,100
2023-04-21T23:40:10.859Z,100
2023-04-21T23:51:00.632Z,100
2023-04-21T23:56:10.873Z,100
